Time;durP1;ratioP1;P1;durP2;ratioP2;P2;SDS_P1;SDS_P2;PMS_P1;PMS_P2;Temp;Humidity;BMP_temperature;BMP_pressure;BME280_temperature;BME280_humidity;BME280_pressure;Samples;Min_cycle;Max_cycle;Signal;HPM_P1;HPM_P2
2022/01/12 00:00:32;;;;;;;26.55;12.05;;;3.40;82.50;;;;;;4140975;28;20430;-71
2022/01/12 00:02:34;;;;;;;24.67;11.25;;;3.40;82.50;;;;;;4142089;28;20029;-72
2022/01/12 00:04:34;;;;;;;27.02;12.35;;;3.40;82.60;;;;;;4108123;28;20034;-71
2022/01/12 00:06:35;;;;;;;30.80;12.75;;;3.40;82.70;;;;;;4138222;28;20030;-72
2022/01/12 00:08:36;;;;;;;31.00;13.07;;;3.40;82.70;;;;;;4140134;28;20042;-71
2022/01/12 00:10:38;;;;;;;27.50;12.63;;;3.50;82.70;;;;;;4142259;28;20030;-71
2022/01/12 00:12:39;;;;;;;28.40;12.93;;;3.50;82.80;;;;;;4108798;28;20384;-71
2022/01/12 00:14:39;;;;;;;25.90;12.80;;;3.50;82.80;;;;;;4122409;28;20037;-72
2022/01/12 00:16:46;;;;;;;33.42;12.93;;;3.50;82.90;;;;;;4140268;28;20156;-71
2022/01/12 00:18:46;;;;;;;27.92;12.57;;;3.50;83.00;;;;;;4123362;28;20466;-72
2022/01/12 00:20:49;;;;;;;30.52;12.65;;;3.50;83.00;;;;;;4142217;28;20021;-72
2022/01/12 00:22:51;;;;;;;28.23;12.65;;;3.50;83.00;;;;;;4111066;28;20041;-71
2022/01/12 00:33:53;;;;;;;27.15;12.02;;;3.50;83.10;;;;;;4142589;28;20037;-72
2022/01/12 00:35:55;;;;;;;27.05;12.23;;;3.50;83.10;;;;;;4107283;28;20038;-72
2022/01/12 00:37:55;;;;;;;26.13;11.88;;;3.50;83.10;;;;;;4104626;28;20093;-72
2022/01/12 00:39:58;;;;;;;27.00;11.23;;;3.60;83.10;;;;;;4127001;28;20034;-73
2022/01/12 00:41:59;;;;;;;26.13;11.45;;;3.60;83.10;;;;;;4141136;28;20097;-73
2022/01/12 00:44:00;;;;;;;29.10;12.60;;;3.60;83.10;;;;;;4111814;28;20391;-73
2022/01/12 00:46:01;;;;;;;30.70;12.50;;;3.60;83.20;;;;;;4142533;28;20109;-73
2022/01/12 00:48:01;;;;;;;25.92;11.65;;;3.60;83.20;;;;;;4105379;28;20475;-72
2022/01/12 00:50:03;;;;;;;27.17;12.43;;;3.60;83.20;;;;;;4120498;28;20042;-72
2022/01/12 00:52:03;;;;;;;31.38;13.00;;;3.60;83.30;;;;;;4141683;28;20040;-73
2022/01/12 00:54:06;;;;;;;25.08;11.77;;;3.60;83.20;;;;;;4092087;28;20034;-72
2022/01/12 00:56:06;;;;;;;24.80;11.13;;;3.60;83.30;;;;;;4141348;28;20100;-73
2022/01/12 00:58:07;;;;;;;28.63;12.30;;;3.60;83.30;;;;;;4123304;28;20427;-73
2022/01/12 01:00:08;;;;;;;26.58;10.98;;;3.60;83.20;;;;;;4120951;28;20058;-73
2022/01/12 01:02:09;;;;;;;24.20;11.23;;;3.60;83.20;;;;;;4128742;28;20031;-72
2022/01/12 01:04:10;;;;;;;24.83;10.70;;;3.60;83.30;;;;;;4091344;28;20086;-72
2022/01/12 01:06:11;;;;;;;28.17;11.75;;;3.60;83.20;;;;;;4137327;28;20026;-73
2022/01/12 01:08:12;;;;;;;24.25;11.50;;;3.60;83.30;;;;;;4124668;28;20026;-73
2022/01/12 01:10:18;;;;;;;27.63;12.38;;;3.70;83.40;;;;;;4124021;28;20282;-73
2022/01/12 01:12:19;;;;;;;25.90;11.45;;;3.70;83.40;;;;;;4109655;28;20549;-74
2022/01/12 01:14:36;;;;;;;27.75;11.85;;;3.60;83.30;;;;;;4135117;28;20033;-74
2022/01/12 01:25:54;;;;;;;29.17;12.15;;;3.70;83.80;;;;;;4140615;28;20026;-73
2022/01/12 01:27:55;;;;;;;32.25;12.10;;;3.70;83.80;;;;;;4109473;28;20019;-73
2022/01/12 01:29:55;;;;;;;32.08;12.80;;;3.60;83.80;;;;;;4136306;28;20108;-73
2022/01/12 01:31:56;;;;;;;31.05;12.63;;;3.70;83.90;;;;;;4110568;28;20526;-73
2022/01/12 01:33:59;;;;;;;36.60;13.93;;;3.70;83.90;;;;;;4140087;28;20037;-73
2022/01/12 01:35:59;;;;;;;32.40;12.32;;;3.70;84.00;;;;;;4121258;28;20034;-73
2022/01/12 01:38:01;;;;;;;36.25;13.50;;;3.70;84.00;;;;;;4121892;28;20113;-72
2022/01/12 01:40:02;;;;;;;36.60;13.02;;;3.70;84.00;;;;;;4121609;28;20042;-73
2022/01/12 01:42:08;;;;;;;32.65;12.93;;;3.70;83.90;;;;;;4141536;28;20030;-73
2022/01/12 01:53:21;;;;;;;33.55;14.75;;;3.90;83.90;;;;;;4127354;28;20022;-73
2022/01/12 01:55:22;;;;;;;33.15;14.15;;;3.90;83.90;;;;;;4124434;28;20521;-73
2022/01/12 01:57:24;;;;;;;41.28;14.48;;;3.90;83.80;;;;;;4126453;28;20056;-73
2022/01/12 01:59:25;;;;;;;39.92;14.48;;;3.90;83.80;;;;;;4136161;28;20030;-73
2022/01/12 02:01:25;;;;;;;31.70;13.30;;;4.00;83.90;;;;;;4122852;28;20076;-73
2022/01/12 02:03:27;;;;;;;39.50;15.02;;;4.00;83.90;;;;;;4127402;28;20045;-73
2022/01/12 02:05:28;;;;;;;37.85;15.02;;;4.00;83.80;;;;;;4128051;28;20030;-72
2022/01/12 02:07:29;;;;;;;46.10;14.82;;;4.00;83.80;;;;;;4125427;28;20030;-72
2022/01/12 02:09:29;;;;;;;41.42;15.05;;;4.00;83.70;;;;;;4140959;28;20038;-72
2022/01/12 02:11:30;;;;;;;46.03;15.23;;;4.00;83.80;;;;;;4144197;28;20080;-72
2022/01/12 02:13:31;;;;;;;42.65;14.88;;;4.20;83.90;;;;;;4125720;28;20084;-72
2022/01/12 02:15:32;;;;;;;48.00;16.63;;;4.10;83.80;;;;;;4123811;28;20038;-72
2022/01/12 02:17:38;;;;;;;51.53;15.65;;;4.10;83.90;;;;;;4123376;28;20395;-73
2022/01/12 02:35:57;;;;;;;47.90;13.93;;;4.10;84.50;;;;;;4166112;28;20060;-82
2022/01/12 02:40:01;;;;;;;72.78;14.85;;;4.10;84.80;;;;;;4179203;28;20091;-83
2022/01/12 02:42:02;;;;;;;43.72;12.07;;;4.10;85.00;;;;;;4139729;28;20205;-83
2022/01/12 02:55:28;;;;;;;33.13;10.68;;;4.10;85.80;;;;;;4161666;28;20845;-83
2022/01/12 02:57:29;;;;;;;27.55;11.07;;;4.10;85.70;;;;;;4160525;28;20108;-82
2022/01/12 02:59:29;;;;;;;32.85;12.02;;;4.10;85.70;;;;;;4144394;28;20407;-82
2022/01/12 03:03:35;;;;;;;34.20;11.48;;;4.10;85.70;;;;;;4142082;28;20717;-82
2022/01/12 03:05:45;;;;;;;34.38;11.75;;;4.10;85.60;;;;;;4157683;28;20025;-82
2022/01/12 03:07:46;;;;;;;34.75;11.23;;;4.10;85.70;;;;;;4160348;28;20120;-82
2022/01/12 03:09:47;;;;;;;30.90;11.15;;;4.10;85.70;;;;;;4142941;28;20082;-82
2022/01/12 03:11:47;;;;;;;31.30;10.85;;;4.10;85.70;;;;;;4159320;28;20038;-82
2022/01/12 03:13:48;;;;;;;29.42;10.45;;;4.00;85.70;;;;;;4177201;28;20059;-82
2022/01/12 03:15:49;;;;;;;35.47;10.98;;;4.00;85.70;;;;;;4157375;28;20044;-83
2022/01/12 03:17:49;;;;;;;27.80;10.48;;;4.00;85.60;;;;;;4157876;28;20029;-82
2022/01/12 03:19:50;;;;;;;36.72;11.57;;;4.00;85.60;;;;;;4173962;28;20096;-83
2022/01/12 03:21:51;;;;;;;35.72;11.73;;;4.00;85.50;;;;;;4160815;28;20045;-82
2022/01/12 03:23:51;;;;;;;34.55;11.30;;;3.90;85.40;;;;;;4145964;28;20049;-83
2022/01/12 03:25:52;;;;;;;31.67;12.15;;;3.90;85.50;;;;;;4175602;28;20029;-82
2022/01/12 03:27:58;;;;;;;31.08;11.23;;;3.90;85.50;;;;;;4159393;28;20123;-82
2022/01/12 03:29:59;;;;;;;34.10;12.15;;;3.90;85.50;;;;;;4160399;28;20029;-82
2022/01/12 03:32:01;;;;;;;31.67;11.10;;;3.90;85.50;;;;;;4154622;28;20478;-82
2022/01/12 03:34:21;;;;;;;36.28;12.10;;;3.90;86.20;;;;;;4164993;28;20047;-82
2022/01/12 03:38:25;;;;;;;;;;;3.90;85.50;;;;;;4161327;28;20033;-82
2022/01/12 03:40:25;;;;;;;32.30;10.82;;;3.90;85.70;;;;;;4158410;28;20517;-82
2022/01/12 03:42:26;;;;;;;31.35;10.90;;;3.90;85.40;;;;;;4159195;28;20103;-83
2022/01/12 03:44:27;;;;;;;29.20;10.57;;;3.90;85.30;;;;;;4145196;28;20148;-82
2022/01/12 03:46:30;;;;;;;30.90;10.88;;;3.80;85.10;;;;;;4162314;28;20025;-83
2022/01/12 03:48:31;;;;;;;30.83;9.77;;;3.80;85.00;;;;;;4156040;28;20037;-82
2022/01/12 03:50:32;;;;;;;31.33;10.27;;;3.80;85.60;;;;;;4174417;28;20055;-84
2022/01/12 03:52:32;;;;;;;29.00;9.82;;;3.70;84.70;;;;;;4178346;28;20037;-84
2022/01/12 03:54:33;;;;;;;26.88;9.57;;;3.70;84.60;;;;;;4160340;28;20066;-84
2022/01/12 03:56:33;;;;;;;32.45;11.10;;;3.60;84.40;;;;;;4173316;28;20307;-84
2022/01/12 03:58:34;;;;;;;34.22;12.57;;;3.60;84.30;;;;;;4161899;28;20028;-84
2022/01/12 04:00:35;;;;;;;49.17;15.55;;;3.50;84.30;;;;;;4141501;28;20133;-84
2022/01/12 04:02:35;;;;;;;48.60;16.13;;;3.50;84.30;;;;;;4175069;28;20114;-84
2022/01/12 04:04:52;;;;;;;52.55;17.55;;;3.50;85.10;;;;;;4157301;28;20030;-84
2022/01/12 04:09:12;;;;;;;36.90;11.50;;;3.40;84.40;;;;;;4162499;28;20075;-83
2022/01/12 04:11:12;;;;;;;27.45;9.73;;;3.40;84.40;;;;;;4174231;28;20502;-83
2022/01/12 04:13:14;;;;;;;30.13;9.75;;;3.40;84.40;;;;;;4155421;28;20041;-83
2022/01/12 04:15:15;;;;;;;26.98;9.65;;;3.40;84.50;;;;;;4155959;28;20117;-83
2022/01/12 04:17:15;;;;;;;28.38;9.50;;;3.40;84.50;;;;;;4175273;28;20032;-83
2022/01/12 04:19:16;;;;;;;26.95;8.70;;;3.50;84.60;;;;;;4181768;28;20032;-84
2022/01/12 04:21:23;;;;;;;25.70;8.48;;;3.50;84.60;;;;;;4125812;28;20038;-84
2022/01/12 04:23:24;;;;;;;26.08;8.80;;;3.50;84.60;;;;;;4177593;28;20487;-83
2022/01/12 04:25:25;;;;;;;28.25;9.55;;;3.50;84.50;;;;;;4154071;28;20025;-83
2022/01/12 04:27:25;;;;;;;20.67;7.40;;;3.60;84.50;;;;;;4158639;28;20028;-82
2022/01/12 04:29:26;;;;;;;31.17;9.18;;;3.60;84.40;;;;;;4175812;28;20142;-83
2022/01/12 04:31:27;;;;;;;27.48;8.68;;;3.60;84.20;;;;;;4174951;28;20087;-83
2022/01/12 04:33:29;;;;;;;26.65;8.02;;;3.70;84.20;;;;;;4157927;28;20072;-82
2022/01/12 04:35:34;;;;;;;24.77;8.23;;;3.60;84.00;;;;;;4157220;28;20819;-82
2022/01/12 04:37:35;;;;;;;27.20;8.63;;;3.60;83.90;;;;;;4143495;28;20594;-82
2022/01/12 04:39:35;;;;;;;22.20;7.68;;;3.60;83.90;;;;;;4142702;28;20041;-82
2022/01/12 04:41:36;;;;;;;24.92;7.85;;;3.60;83.80;;;;;;4127204;28;20424;-83
2022/01/12 04:43:38;;;;;;;25.48;8.20;;;3.60;83.70;;;;;;4178100;28;20029;-83
2022/01/12 04:45:56;;;;;;;26.90;9.00;;;3.70;83.70;;;;;;4141681;28;20410;-83
2022/01/12 04:48:01;;;;;;;28.05;8.98;;;3.60;83.50;;;;;;4143765;28;20598;-83
2022/01/12 04:50:02;;;;;;;40.35;9.43;;;3.60;83.40;;;;;;4143072;28;20400;-82
2022/01/12 04:52:03;;;;;;;32.28;7.75;;;3.60;83.30;;;;;;4173792;28;20118;-83
2022/01/12 04:54:04;;;;;;;35.83;7.88;;;3.50;83.10;;;;;;4147252;28;20517;-83
2022/01/12 04:56:04;;;;;;;45.05;7.75;;;3.60;83.20;;;;;;4157047;28;20037;-82
2022/01/12 04:58:05;;;;;;;62.38;8.23;;;3.50;83.10;;;;;;4144266;28;20682;-83
2022/01/12 05:00:17;;;;;;;31.77;6.97;;;3.40;83.20;;;;;;4135802;28;20057;-83
2022/01/12 05:07:12;;;;;;;81.43;7.35;;;3.40;83.00;;;;;;4170115;28;20035;-82
2022/01/12 05:09:39;;;;;;;103.75;9.13;;;3.40;83.00;;;;;;4151961;28;20033;-83
2022/01/12 05:13:59;;;;;;;120.32;8.10;;;3.30;83.10;;;;;;4149046;28;20101;-91
2022/01/12 05:16:02;;;;;;;101.55;6.93;;;3.20;83.10;;;;;;4139728;28;20064;-83
2022/01/12 05:18:03;;;;;;;110.55;8.10;;;3.20;83.30;;;;;;4143983;28;20569;-83
2022/01/12 05:20:04;;;;;;;120.70;6.50;;;3.20;83.30;;;;;;4157609;28;20046;-83
2022/01/12 05:22:05;;;;;;;139.15;7.38;;;3.20;83.30;;;;;;4173143;28;20025;-82
2022/01/12 05:24:07;;;;;;;112.88;6.68;;;3.10;83.30;;;;;;4139225;28;20451;-82
2022/01/12 05:26:08;;;;;;;97.75;7.38;;;3.20;83.40;;;;;;4171415;28;20025;-83
2022/01/12 05:28:08;;;;;;;96.65;7.50;;;3.10;83.40;;;;;;4140056;28;20141;-83
2022/01/12 05:30:10;;;;;;;100.57;5.97;;;3.10;83.40;;;;;;4135395;28;20092;-83
2022/01/12 05:32:10;;;;;;;136.23;6.40;;;3.10;83.50;;;;;;4161550;28;20033;-83
2022/01/12 05:34:11;;;;;;;129.15;5.35;;;3.10;83.50;;;;;;4136423;28;20026;-83
2022/01/12 05:36:12;;;;;;;112.82;6.28;;;3.10;83.60;;;;;;4112323;28;20420;-83
2022/01/12 05:38:13;;;;;;;90.55;5.15;;;3.10;83.60;;;;;;4139100;28;20038;-83
2022/01/12 05:40:14;;;;;;;126.15;5.82;;;3.10;83.60;;;;;;4149456;28;20041;-82
2022/01/12 05:42:15;;;;;;;110.22;5.90;;;3.00;84.00;;;;;;4140921;28;20109;-83
2022/01/12 05:44:15;;;;;;;158.32;5.55;;;3.10;83.70;;;;;;4134776;28;20881;-83
2022/01/12 05:46:21;;;;;;;102.93;5.50;;;3.10;83.70;;;;;;4157441;28;20024;-83
2022/01/12 05:50:23;;;;;;;125.25;5.00;;;3.10;83.60;;;;;;4146165;28;20467;-83
2022/01/12 05:52:23;;;;;;;106.05;5.15;;;3.10;83.70;;;;;;4123443;28;20057;-83
2022/01/12 05:54:24;;;;;;;89.05;4.75;;;3.10;83.70;;;;;;4172376;28;20097;-82
2022/01/12 05:56:25;;;;;;;122.88;6.78;;;3.10;84.40;;;;;;4161415;28;20045;-83
2022/01/12 05:58:25;;;;;;;119.45;5.57;;;3.10;83.70;;;;;;4175260;28;20028;-83
2022/01/12 06:00:27;;;;;;;87.95;4.20;;;3.10;83.70;;;;;;4146066;28;20044;-83
2022/01/12 06:02:28;;;;;;;103.43;5.22;;;3.10;83.70;;;;;;4142592;28;20455;-83
2022/01/12 06:04:28;;;;;;;118.18;6.13;;;3.10;83.70;;;;;;4144266;28;20026;-83
2022/01/12 06:06:29;;;;;;;101.20;5.80;;;3.10;83.70;;;;;;4152962;28;20022;-83
2022/01/12 06:08:29;;;;;;;66.35;4.20;;;3.10;84.40;;;;;;4158795;28;20029;-83
2022/01/12 06:10:30;;;;;;;61.63;4.40;;;3.00;83.60;;;;;;4157255;28;20037;-83
2022/01/12 06:12:31;;;;;;;53.80;3.85;;;3.00;84.40;;;;;;4166603;28;20030;-83
2022/01/12 06:14:31;;;;;;;78.35;4.07;;;3.10;84.50;;;;;;4163032;28;20197;-83
2022/01/12 06:16:32;;;;;;;122.00;5.15;;;3.00;84.40;;;;;;4143178;28;20029;-82
2022/01/12 06:18:32;;;;;;;49.00;3.47;;;3.10;83.80;;;;;;4179188;28;20104;-82
2022/01/12 06:20:33;;;;;;;42.88;3.35;;;3.00;83.70;;;;;;4170798;28;20072;-83
2022/01/12 06:22:34;;;;;;;61.25;4.25;;;3.10;83.80;;;;;;4160863;28;20029;-83
2022/01/12 06:24:35;;;;;;;43.63;4.13;;;3.20;83.80;;;;;;4156180;28;20029;-83
2022/01/12 06:26:37;;;;;;;37.60;3.92;;;3.10;83.80;;;;;;4143076;28;20026;-83
2022/01/12 06:28:41;;;;;;;38.28;4.63;;;3.10;83.80;;;;;;4179954;28;20080;-83
2022/01/12 06:33:01;;;;;;;56.60;4.75;;;3.10;83.70;;;;;;4162303;28;20480;-83
2022/01/12 06:35:01;;;;;;;41.90;3.40;;;3.10;83.60;;;;;;4159740;28;20033;-83
2022/01/12 06:37:02;;;;;;;20.60;3.60;;;3.10;83.50;;;;;;4142573;28;20053;-83
2022/01/12 06:39:09;;;;;;;33.55;3.45;;;3.10;83.50;;;;;;4147922;28;20035;-83
2022/01/12 06:41:10;;;;;;;23.65;4.10;;;3.10;83.40;;;;;;4114822;28;20046;-83
2022/01/12 06:43:11;;;;;;;37.70;3.45;;;3.10;83.40;;;;;;4145917;28;20029;-83
2022/01/12 06:45:12;;;;;;;48.53;15.93;;;3.10;83.40;;;;;;4177149;28;20444;-83
2022/01/12 06:47:12;;;;;;;40.80;4.63;;;3.10;83.40;;;;;;4163884;28;20025;-83
2022/01/12 06:49:13;;;;;;;58.45;4.10;;;3.00;83.30;;;;;;4176910;28;20152;-83
2022/01/12 06:51:14;;;;;;;28.40;2.78;;;3.00;83.30;;;;;;4177777;28;20033;-83
2022/01/12 06:53:14;;;;;;;53.90;3.45;;;3.00;83.30;;;;;;4156620;28;20105;-83
2022/01/12 06:55:15;;;;;;;29.90;3.75;;;3.00;83.30;;;;;;4163783;28;20025;-83
2022/01/12 06:57:17;;;;;;;27.90;3.50;;;3.00;83.30;;;;;;4180196;28;20090;-83
2022/01/12 06:59:17;;;;;;;18.67;3.20;;;3.00;83.40;;;;;;4176554;28;20064;-83
2022/01/12 07:01:18;;;;;;;30.55;3.78;;;2.90;83.30;;;;;;4167954;28;20952;-82
2022/01/12 07:03:18;;;;;;;51.55;3.85;;;3.00;83.40;;;;;;4174140;28;20022;-83
2022/01/12 07:05:19;;;;;;;50.90;4.25;;;3.00;83.50;;;;;;4175805;28;20490;-82
2022/01/12 07:07:20;;;;;;;43.33;3.55;;;2.90;83.50;;;;;;4156379;28;20418;-83
2022/01/12 07:09:20;;;;;;;28.30;3.53;;;2.90;83.50;;;;;;4175668;28;20075;-83
2022/01/12 07:11:21;;;;;;;28.08;3.05;;;2.80;83.60;;;;;;4178604;28;20028;-83
2022/01/12 07:13:22;;;;;;;19.60;2.83;;;2.80;83.70;;;;;;4171577;28;20423;-83
2022/01/12 07:15:23;;;;;;;39.70;3.50;;;2.70;83.70;;;;;;4170949;28;20017;-83
2022/01/12 07:17:23;;;;;;;28.20;3.30;;;2.70;83.80;;;;;;4156845;28;20028;-83
2022/01/12 07:19:24;;;;;;;22.98;3.65;;;2.70;83.80;;;;;;4172286;28;20064;-83
2022/01/12 07:21:25;;;;;;;20.33;3.10;;;2.70;84.00;;;;;;4176789;28;20440;-83
2022/01/12 07:23:27;;;;;;;12.43;2.33;;;2.70;84.00;;;;;;4177403;28;20398;-83
2022/01/12 07:25:27;;;;;;;17.73;2.38;;;2.80;84.10;;;;;;4173544;28;20073;-83
2022/01/12 07:27:28;;;;;;;6.00;2.63;;;2.80;84.20;;;;;;4144263;28;20034;-83
2022/01/12 07:29:28;;;;;;;13.52;2.88;;;2.80;84.20;;;;;;4177237;28;20029;-83
2022/01/12 07:31:29;;;;;;;9.88;2.30;;;2.80;84.20;;;;;;4178548;28;20516;-83
2022/01/12 07:33:30;;;;;;;5.13;2.65;;;2.90;84.20;;;;;;4163647;28;20029;-83
2022/01/12 07:35:30;;;;;;;5.30;2.28;;;2.80;84.20;;;;;;4175037;28;20155;-83
2022/01/12 07:37:31;;;;;;;11.93;2.72;;;2.90;84.10;;;;;;4172604;28;20025;-83
2022/01/12 07:39:32;;;;;;;11.02;3.00;;;2.90;84.10;;;;;;4176800;28;20037;-83
2022/01/12 07:41:32;;;;;;;12.00;3.50;;;2.90;84.10;;;;;;4142055;28;20030;-83
2022/01/12 07:43:33;;;;;;;19.67;3.42;;;2.90;84.00;;;;;;4128542;28;20126;-83
2022/01/12 07:45:34;;;;;;;11.07;3.55;;;3.00;84.10;;;;;;4159988;28;20487;-83
2022/01/12 07:47:35;;;;;;;13.10;3.70;;;3.00;84.00;;;;;;4176225;28;20470;-83
2022/01/12 07:49:36;;;;;;;23.63;3.92;;;3.10;84.00;;;;;;4177904;28;20039;-83
2022/01/12 07:51:37;;;;;;;23.77;4.80;;;3.10;83.90;;;;;;4179694;28;20055;-83
2022/01/12 07:53:38;;;;;;;17.95;4.38;;;3.10;83.80;;;;;;4165370;28;20049;-83
2022/01/12 07:55:38;;;;;;;25.10;4.22;;;3.10;83.70;;;;;;4151852;28;20113;-84
2022/01/12 07:57:41;;;;;;;26.05;4.35;;;3.20;83.70;;;;;;4158592;28;20530;-83
2022/01/12 07:59:42;;;;;;;9.38;4.18;;;3.10;83.50;;;;;;4177133;28;20512;-83
2022/01/12 08:01:42;;;;;;;15.98;3.53;;;3.20;83.50;;;;;;4139800;28;20037;-82
2022/01/12 08:03:43;;;;;;;10.48;3.17;;;3.20;83.40;;;;;;4154359;28;20026;-82
2022/01/12 08:05:44;;;;;;;11.43;3.20;;;3.10;83.30;;;;;;4166532;28;20360;-83
2022/01/12 08:07:45;;;;;;;12.15;3.10;;;3.20;83.30;;;;;;4167586;28;20518;-83
2022/01/12 08:09:46;;;;;;;13.60;3.80;;;3.20;83.30;;;;;;4176233;28;20390;-83
2022/01/12 08:11:46;;;;;;;12.18;3.70;;;3.10;83.30;;;;;;4148947;28;20025;-83
2022/01/12 08:13:49;;;;;;;8.13;3.85;;;3.10;83.40;;;;;;4178411;28;20048;-83
2022/01/12 08:15:50;;;;;;;7.50;3.30;;;3.10;83.50;;;;;;4175148;28;20057;-83
2022/01/12 08:17:50;;;;;;;15.13;2.80;;;3.10;83.60;;;;;;4152128;28;20026;-83
2022/01/12 08:19:54;;;;;;;13.55;2.47;;;3.10;83.70;;;;;;4160170;28;20069;-83
2022/01/12 08:21:55;;;;;;;6.53;2.75;;;3.20;83.80;;;;;;4161022;28;20116;-82
2022/01/12 08:23:55;;;;;;;4.65;2.70;;;3.20;83.90;;;;;;4171347;28;20029;-82
2022/01/12 08:25:56;;;;;;;6.15;2.90;;;3.20;84.10;;;;;;4151110;28;20538;-83
2022/01/12 08:27:57;;;;;;;7.85;2.70;;;3.20;84.10;;;;;;4135377;28;20137;-82
2022/01/12 08:30:02;;;;;;;6.45;3.00;;;3.20;84.10;;;;;;4168799;28;20092;-82
2022/01/12 08:32:03;;;;;;;8.05;2.97;;;3.30;84.20;;;;;;4141012;28;20108;-83
2022/01/12 08:34:04;;;;;;;8.57;3.10;;;3.30;84.20;;;;;;4147547;28;20108;-82
2022/01/12 08:36:05;;;;;;;8.57;3.15;;;3.30;84.20;;;;;;4166005;28;20033;-82
2022/01/12 08:38:06;;;;;;;8.48;3.10;;;3.30;84.20;;;;;;4133107;28;20034;-83
2022/01/12 08:40:07;;;;;;;10.77;2.70;;;3.40;84.20;;;;;;4151619;28;20120;-83
2022/01/12 08:42:08;;;;;;;11.88;3.22;;;3.40;84.20;;;;;;4155493;28;20025;-83
2022/01/12 08:44:08;;;;;;;6.75;2.55;;;3.40;84.10;;;;;;4155649;28;20121;-83
2022/01/12 08:46:09;;;;;;;9.88;3.67;;;3.50;84.20;;;;;;4155646;28;20033;-83
2022/01/12 08:48:10;;;;;;;16.48;4.63;;;3.50;84.20;;;;;;4144115;28;20029;-83
2022/01/12 08:50:10;;;;;;;12.57;3.83;;;3.50;84.30;;;;;;4151080;28;20429;-82
2022/01/12 08:52:11;;;;;;;10.27;3.40;;;3.60;84.30;;;;;;4117813;28;20029;-82
2022/01/12 08:54:13;;;;;;;8.40;3.20;;;3.60;84.20;;;;;;4168605;28;20037;-83
2022/01/12 08:56:14;;;;;;;6.15;2.75;;;3.60;84.10;;;;;;4138693;28;20117;-83
2022/01/12 08:58:14;;;;;;;11.38;3.13;;;3.70;84.20;;;;;;4135698;28;20045;-83
2022/01/12 09:00:15;;;;;;;26.73;3.03;;;3.70;84.10;;;;;;4132602;28;20044;-83
2022/01/12 09:02:16;;;;;;;7.38;3.15;;;3.70;84.00;;;;;;4520465;23;20052;-83
2022/01/12 09:04:17;;;;;;;11.05;2.40;;;3.70;84.00;;;;;;4166950;28;20470;-83
2022/01/12 09:06:17;;;;;;;12.98;2.55;;;3.80;84.00;;;;;;4167623;28;20132;-83
2022/01/12 09:08:18;;;;;;;9.13;2.40;;;3.80;84.00;;;;;;4165894;28;20068;-82
2022/01/12 09:10:19;;;;;;;9.68;2.47;;;3.80;84.00;;;;;;4149780;28;20032;-83
2022/01/12 09:12:19;;;;;;;5.53;1.88;;;3.90;84.10;;;;;;4153717;28;20037;-83
2022/01/12 09:14:20;;;;;;;13.88;2.10;;;3.90;84.10;;;;;;4137014;28;20026;-82
2022/01/12 09:16:20;;;;;;;5.63;1.80;;;3.90;84.90;;;;;;4136377;28;20038;-82
2022/01/12 09:18:21;;;;;;;10.80;2.45;;;3.90;84.10;;;;;;4134488;28;20022;-83
2022/01/12 09:20:22;;;;;;;8.68;2.63;;;3.90;84.00;;;;;;4127078;28;20218;-82
2022/01/12 09:22:22;;;;;;;4.07;2.10;;;3.90;83.90;;;;;;4171438;28;20029;-83
2022/01/12 09:24:23;;;;;;;12.45;2.42;;;4.00;84.00;;;;;;4158822;28;20106;-83
2022/01/12 09:26:23;;;;;;;8.23;2.22;;;4.00;84.00;;;;;;4168958;28;20029;-83
2022/01/12 09:28:24;;;;;;;9.80;3.08;;;4.00;83.90;;;;;;4169092;28;20037;-83
2022/01/12 09:30:26;;;;;;;8.48;2.40;;;4.00;83.80;;;;;;4153295;28;20095;-83
2022/01/12 09:32:27;;;;;;;5.10;1.83;;;4.00;83.70;;;;;;4168897;28;20029;-82
2022/01/12 09:34:28;;;;;;;3.35;1.98;;;4.00;83.70;;;;;;4155024;28;20035;-82
2022/01/12 09:36:28;;;;;;;8.45;2.70;;;4.00;83.60;;;;;;4170393;28;20087;-82
2022/01/12 09:38:29;;;;;;;13.00;2.55;;;4.10;83.60;;;;;;4116802;28;20034;-82
2022/01/12 09:40:30;;;;;;;9.25;2.40;;;4.00;83.60;;;;;;4157355;28;20458;-82
2022/01/12 09:42:32;;;;;;;9.77;2.40;;;4.00;83.50;;;;;;4143611;28;20029;-82
2022/01/12 09:44:37;;;;;;;9.02;2.63;;;4.00;83.50;;;;;;4166564;28;20024;-83
2022/01/12 09:46:37;;;;;;;25.27;3.10;;;4.00;83.40;;;;;;4156520;28;20109;-82
2022/01/12 09:48:38;;;;;;;10.20;2.50;;;4.00;83.30;;;;;;4140606;28;20320;-82
2022/01/12 09:50:39;;;;;;;14.68;3.35;;;4.00;83.30;;;;;;4158567;28;20511;-83
2022/01/12 09:52:39;;;;;;;12.77;3.08;;;4.00;83.20;;;;;;4134529;28;20105;-83
2022/01/12 09:54:40;;;;;;;11.70;3.53;;;4.00;83.20;;;;;;4143077;28;20494;-83
2022/01/12 09:56:40;;;;;;;15.93;4.00;;;3.90;83.10;;;;;;4163936;28;20030;-83
2022/01/12 09:58:41;;;;;;;19.25;3.47;;;4.00;83.20;;;;;;4152557;28;20546;-83
2022/01/12 10:00:42;;;;;;;17.33;3.60;;;4.00;83.30;;;;;;4135198;28;20570;-83
2022/01/12 10:02:42;;;;;;;15.77;3.63;;;4.00;83.40;;;;;;4146607;28;20026;-83
2022/01/12 10:04:43;;;;;;;13.82;3.67;;;4.00;83.50;;;;;;4136337;28;20095;-83
2022/01/12 10:07:03;;;;;;;13.02;2.72;;;4.00;83.60;;;;;;4135974;28;20026;-82
2022/01/12 10:09:04;;;;;;;6.63;2.78;;;4.00;83.70;;;;;;4135949;28;20491;-84
2022/01/12 10:11:05;;;;;;;11.68;2.63;;;4.00;83.70;;;;;;4155121;28;20036;-83
2022/01/12 10:13:16;;;;;;;19.60;2.80;;;4.10;83.70;;;;;;4166878;28;20032;-83
2022/01/12 10:15:16;;;;;;;14.30;2.33;;;4.10;83.80;;;;;;4158308;28;20588;-83
2022/01/12 10:17:36;;;;;;;19.02;2.47;;;4.10;84.50;;;;;;4172017;28;20029;-83
2022/01/12 10:19:37;;;;;;;8.77;2.22;;;4.10;83.70;;;;;;4141775;28;20037;-83
2022/01/12 10:21:38;;;;;;;3.85;2.25;;;4.10;83.80;;;;;;4154147;28;20033;-83
2022/01/12 10:23:40;;;;;;;7.90;2.28;;;4.20;83.80;;;;;;4157660;28;20395;-84
2022/01/12 10:25:46;;;;;;;12.75;2.35;;;4.20;83.90;;;;;;4134921;28;20025;-83
2022/01/12 10:27:46;;;;;;;10.07;2.47;;;4.20;83.80;;;;;;4142213;28;20541;-83
2022/01/12 10:29:55;;;;;;;6.47;2.45;;;4.30;83.90;;;;;;4154648;28;20104;-83
2022/01/12 10:32:00;;;;;;;9.63;2.40;;;4.40;83.80;;;;;;4135391;28;20036;-82
2022/01/12 10:34:02;;;;;;;11.95;2.60;;;4.40;83.80;;;;;;4150064;28;20064;-82
2022/01/12 10:36:06;;;;;;;17.92;2.80;;;4.30;83.70;;;;;;4139198;28;20438;-83
2022/01/12 10:38:06;;;;;;;12.57;2.65;;;4.40;83.70;;;;;;4121986;28;20030;-83
2022/01/12 10:40:09;;;;;;;5.70;2.42;;;4.40;83.70;;;;;;4170596;28;20045;-83
2022/01/12 10:42:11;;;;;;;16.92;2.83;;;4.40;83.80;;;;;;4151390;28;20160;-83
2022/01/12 10:44:23;;;;;;;16.30;3.00;;;4.50;83.70;;;;;;4154912;28;20029;-83
2022/01/12 10:46:26;;;;;;;18.13;2.47;;;4.50;83.70;;;;;;4150118;28;20077;-83
2022/01/12 10:48:54;;;;;;;11.10;2.42;;;4.50;83.60;;;;;;4170109;28;20037;-83
2022/01/12 10:50:58;;;;;;;14.30;2.63;;;4.60;83.70;;;;;;4164806;28;20124;-83
2022/01/12 10:52:59;;;;;;;11.23;2.70;;;4.60;83.70;;;;;;4169393;28;20029;-83
2022/01/12 10:55:03;;;;;;;7.53;2.00;;;4.60;83.60;;;;;;4150803;28;20524;-84
2022/01/12 10:57:31;;;;;;;8.75;1.65;;;4.60;83.50;;;;;;4152271;28;20025;-83
2022/01/12 10:59:31;;;;;;;12.25;1.95;;;4.70;83.50;;;;;;4167219;28;20033;-83
2022/01/12 11:01:32;;;;;;;12.57;2.65;;;4.70;83.60;;;;;;4170573;28;20039;-83
2022/01/12 11:03:33;;;;;;;8.00;1.95;;;4.70;83.50;;;;;;4148763;28;20486;-84
2022/01/12 11:05:34;;;;;;;12.32;2.50;;;4.70;83.50;;;;;;4151245;28;20482;-83
2022/01/12 11:07:34;;;;;;;14.73;2.25;;;4.80;83.50;;;;;;4138750;28;20318;-83
2022/01/12 11:09:35;;;;;;;14.57;3.03;;;4.70;83.40;;;;;;4119243;28;20049;-83
2022/01/12 11:11:36;;;;;;;14.18;2.58;;;4.80;83.40;;;;;;4133001;28;20096;-82
2022/01/12 11:13:36;;;;;;;7.20;2.13;;;4.80;83.50;;;;;;4133544;28;20935;-83
2022/01/12 11:15:37;;;;;;;10.30;2.05;;;4.80;83.50;;;;;;4140606;28;20442;-84
2022/01/12 11:17:38;;;;;;;12.40;2.20;;;4.80;83.60;;;;;;4149929;28;20029;-83
2022/01/12 11:19:40;;;;;;;16.42;2.72;;;4.80;83.60;;;;;;4156413;28;20532;-83
2022/01/12 11:21:42;;;;;;;14.82;2.28;;;4.90;83.70;;;;;;4141392;28;20080;-83
2022/01/12 11:23:42;;;;;;;5.90;2.08;;;4.90;83.70;;;;;;4134837;28;20026;-83
2022/01/12 11:25:47;;;;;;;16.52;2.53;;;4.90;83.70;;;;;;4151684;28;20100;-83
2022/01/12 11:27:51;;;;;;;19.42;3.83;;;4.90;83.80;;;;;;4141129;28;20039;-83
2022/01/12 11:29:52;;;;;;;13.45;3.03;;;5.00;83.80;;;;;;4154164;28;20475;-83
2022/01/12 11:32:03;;;;;;;31.38;7.80;;;4.90;83.70;;;;;;4150369;28;20029;-83
2022/01/12 11:34:03;;;;;;;26.50;8.25;;;4.90;83.80;;;;;;4151173;28;20030;-83
2022/01/12 11:36:10;;;;;;;21.95;4.07;;;4.90;83.80;;;;;;4156888;28;20030;-83
2022/01/12 11:38:24;;;;;;;10.88;2.25;;;4.90;83.80;;;;;;4167290;28;20032;-83
2022/01/12 11:40:41;;;;;;;18.63;2.70;;;4.90;83.80;;;;;;4168682;28;20140;-83
2022/01/12 11:42:42;;;;;;;14.48;2.83;;;4.90;83.70;;;;;;4152609;28;20026;-83
2022/01/12 11:44:43;;;;;;;24.52;2.53;;;4.90;83.70;;;;;;4169455;28;20042;-83
2022/01/12 11:46:47;;;;;;;13.13;2.15;;;4.90;83.90;;;;;;4150136;28;20105;-83
2022/01/12 11:48:48;;;;;;;13.60;2.40;;;4.90;84.00;;;;;;4169193;28;20041;-83